Time;durP1;ratioP1;P1;durP2;ratioP2;P2;SDS_P1;SDS_P2;PMS_P1;PMS_P2;Temp;Humidity;BMP_temperature;BMP_pressure;BME280_temperature;BME280_humidity;BME280_pressure;Samples;Min_cycle;Max_cycle;Signal;HPM_P1;HPM_P2
2023/12/22 00:02:14;;;;;;;1.67;0.87;;;;;;;9.46;100.00;95762.47;5070893;28;20203;-55
2023/12/22 00:04:41;;;;;;;0.73;0.40;;;;;;;9.43;100.00;95775.16;5080195;28;20590;-56
2023/12/22 00:07:09;;;;;;;2.43;0.60;;;;;;;9.45;100.00;95778.47;5080228;28;20198;-56
2023/12/22 00:09:36;;;;;;;1.00;0.50;;;;;;;9.53;100.00;95770.59;5076963;28;20237;-55
2023/12/22 00:12:05;;;;;;;0.60;0.40;;;;;;;9.52;100.00;95784.78;5070242;28;20264;-55
2023/12/22 00:14:31;;;;;;;0.80;0.50;;;;;;;9.55;100.00;95768.63;5069815;28;20211;-54
2023/12/22 00:16:58;;;;;;;0.77;0.60;;;;;;;9.64;100.00;95780.88;5069492;28;20261;-56
2023/12/22 00:19:25;;;;;;;0.87;0.50;;;;;;;9.61;100.00;95789.09;5069706;28;20228;-55
2023/12/22 00:21:52;;;;;;;0.63;0.60;;;;;;;9.72;99.87;95796.75;5069683;28;20222;-56
2023/12/22 00:24:19;;;;;;;1.30;0.50;;;;;;;9.65;100.00;95803.66;5069952;28;20202;-55
2023/12/22 00:26:45;;;;;;;1.27;0.70;;;;;;;9.65;100.00;95790.44;5069677;28;20547;-54
2023/12/22 00:29:13;;;;;;;1.07;0.97;;;;;;;9.70;100.00;95795.25;5070017;28;20209;-55
2023/12/22 00:31:40;;;;;;;1.90;0.77;;;;;;;9.73;100.00;95808.97;5069898;28;20202;-55
2023/12/22 00:34:06;;;;;;;1.80;0.70;;;;;;;9.70;100.00;95840.97;5069925;28;20666;-54
2023/12/22 00:36:33;;;;;;;1.70;0.90;;;;;;;9.68;100.00;95835.00;5070695;28;20240;-54
2023/12/22 00:39:01;;;;;;;1.07;0.70;;;;;;;9.62;100.00;95808.41;5071782;28;20210;-56
2023/12/22 00:41:27;;;;;;;0.80;0.63;;;;;;;9.53;100.00;95793.53;5071930;28;21345;-54
2023/12/22 00:43:54;;;;;;;1.13;0.70;;;;;;;9.53;100.00;95812.81;5081088;28;20269;-55
2023/12/22 00:46:28;;;;;;;2.73;1.00;;;;;;;9.60;100.00;95799.84;5077086;28;20199;-56
2023/12/22 00:48:56;;;;;;;1.83;0.83;;;;;;;9.64;100.00;95809.91;5075194;28;20206;-55
2023/12/22 00:51:22;;;;;;;1.87;1.00;;;;;;;9.61;100.00;95799.66;5083712;28;20269;-55
2023/12/22 00:53:51;;;;;;;2.17;0.93;;;;;;;9.61;100.00;95820.78;5072056;28;20490;-56
2023/12/22 00:56:18;;;;;;;1.20;0.70;;;;;;;9.67;100.00;95825.41;5073618;28;20222;-55
2023/12/22 00:58:44;;;;;;;2.30;0.80;;;;;;;9.64;100.00;95828.38;5070940;28;20639;-53
2023/12/22 01:01:11;;;;;;;0.87;0.57;;;;;;;9.65;100.00;95837.97;5070587;28;20198;-55
2023/12/22 01:03:39;;;;;;;1.80;0.70;;;;;;;9.64;100.00;95830.19;5073624;28;20199;-55
2023/12/22 01:06:05;;;;;;;1.83;0.73;;;;;;;9.63;100.00;95861.06;5073855;28;20210;-55
2023/12/22 01:08:32;;;;;;;0.77;0.43;;;;;;;9.60;100.00;95866.63;5073686;28;20631;-55
2023/12/22 01:10:58;;;;;;;1.80;0.67;;;;;;;9.60;100.00;95871.91;5074233;28;20206;-57
2023/12/22 01:13:25;;;;;;;1.60;0.60;;;;;;;9.62;100.00;95888.44;5074007;28;20199;-56
2023/12/22 01:15:53;;;;;;;2.57;1.20;;;;;;;9.55;100.00;95879.47;5073941;28;20238;-56
2023/12/22 01:18:20;;;;;;;1.13;0.93;;;;;;;9.55;100.00;95874.19;5073435;28;20225;-56
2023/12/22 01:20:49;;;;;;;1.30;0.80;;;;;;;9.52;100.00;95873.69;5073915;28;20569;-56
2023/12/22 01:23:15;;;;;;;0.77;0.57;;;;;;;9.54;100.00;95874.34;5073278;28;20232;-55
2023/12/22 01:25:42;;;;;;;2.27;0.90;;;;;;;9.52;100.00;95863.13;5073635;28;20243;-56
2023/12/22 01:28:09;;;;;;;0.63;0.60;;;;;;;9.47;100.00;95882.06;5073294;28;20214;-54
2023/12/22 01:30:35;;;;;;;2.43;1.17;;;;;;;9.36;100.00;95884.94;5073771;28;20206;-54
2023/12/22 01:33:02;;;;;;;1.03;0.60;;;;;;;9.35;100.00;95888.59;5073343;28;20195;-55
2023/12/22 01:35:29;;;;;;;2.33;0.80;;;;;;;9.40;100.00;95883.66;5072991;28;20207;-55
2023/12/22 01:37:57;;;;;;;1.33;0.97;;;;;;;9.31;100.00;95898.63;5072826;28;20332;-56
2023/12/22 01:40:24;;;;;;;1.40;1.00;;;;;;;9.27;100.00;95892.00;5073908;28;20206;-56
2023/12/22 01:42:50;;;;;;;3.13;0.63;;;;;;;9.25;100.00;95887.81;5073020;28;20207;-56
2023/12/22 01:45:17;;;;;;;1.63;0.73;;;;;;;9.16;100.00;95878.22;5073448;28;20213;-56
2023/12/22 01:47:45;;;;;;;3.23;1.07;;;;;;;9.15;100.00;95892.38;5072219;28;20202;-57
2023/12/22 01:50:12;;;;;;;2.27;1.27;;;;;;;9.13;100.00;95874.06;5073152;28;20202;-56
2023/12/22 01:52:39;;;;;;;1.57;1.10;;;;;;;9.07;100.00;95850.94;5072857;28;20207;-56
2023/12/22 01:55:08;;;;;;;2.73;1.30;;;;;;;9.06;100.00;95845.81;5073282;28;20232;-56
2023/12/22 01:57:35;;;;;;;3.23;1.23;;;;;;;9.02;100.00;95858.47;5072599;28;20237;-56
2023/12/22 02:00:03;;;;;;;3.33;1.23;;;;;;;9.03;100.00;95868.06;5073117;28;20233;-55
2023/12/22 02:02:31;;;;;;;3.27;1.33;;;;;;;9.00;100.00;95868.34;5073432;28;20255;-56
2023/12/22 02:04:58;;;;;;;6.13;1.90;;;;;;;8.99;100.00;95867.53;5074068;28;20206;-56
2023/12/22 02:07:24;;;;;;;1.97;0.70;;;;;;;9.05;100.00;95876.63;5073690;28;20541;-56
2023/12/22 02:09:51;;;;;;;1.13;0.63;;;;;;;9.02;100.00;95861.13;5073640;28;20298;-55
2023/12/22 02:12:19;;;;;;;1.33;0.80;;;;;;;9.07;100.00;95874.66;5072348;28;20211;-56
2023/12/22 02:14:45;;;;;;;2.57;0.90;;;;;;;9.10;100.00;95884.09;5072642;28;20217;-55
2023/12/22 02:17:21;;;;;;;4.47;1.27;;;;;;;8.84;100.00;95862.94;5072707;28;20613;-56
2023/12/22 02:19:51;;;;;;;2.53;1.00;;;;;;;8.88;100.00;95859.03;5105748;28;20268;-55
2023/12/22 02:22:18;;;;;;;1.73;0.80;;;;;;;8.89;100.00;95866.75;5081765;28;20703;-59
2023/12/22 02:24:46;;;;;;;2.63;0.70;;;;;;;8.93;100.00;95867.28;5086366;28;20318;-57
2023/12/22 02:27:31;;;;;;;3.97;1.13;;;;;;;8.92;100.00;95869.13;5079644;28;20197;-57
2023/12/22 02:30:03;;;;;;;2.73;1.27;;;;;;;8.82;100.00;95852.53;5072941;28;20210;-55
2023/12/22 02:32:33;;;;;;;3.40;0.80;;;;;;;8.79;100.00;95858.13;5073418;28;20248;-55
2023/12/22 02:35:02;;;;;;;1.27;0.73;;;;;;;8.71;100.00;95859.88;5072327;28;20210;-54
2023/12/22 02:37:30;;;;;;;1.43;0.70;;;;;;;8.78;100.00;95853.00;5072952;28;20666;-56
2023/12/22 02:39:59;;;;;;;3.23;1.00;;;;;;;8.75;100.00;95856.75;5072762;28;20229;-55
2023/12/22 02:42:29;;;;;;;2.70;0.93;;;;;;;8.69;100.00;95867.06;5073185;28;20194;-54
2023/12/22 02:44:57;;;;;;;0.83;0.67;;;;;;;8.83;100.00;95877.94;5072805;28;20219;-57
2023/12/22 02:47:24;;;;;;;3.47;0.80;;;;;;;8.77;100.00;95889.09;5071966;28;20206;-56
2023/12/22 02:49:50;;;;;;;1.17;0.83;;;;;;;8.69;100.00;95885.53;5072573;28;20289;-55
2023/12/22 02:52:19;;;;;;;3.53;0.70;;;;;;;8.60;100.00;95882.00;5073015;28;20205;-56
2023/12/22 02:54:47;;;;;;;1.57;0.80;;;;;;;8.54;100.00;95887.03;5072355;28;20572;-58
2023/12/22 02:57:15;;;;;;;0.87;0.60;;;;;;;8.50;100.00;95881.25;5073023;28;20214;-56
2023/12/22 02:59:41;;;;;;;1.43;0.90;;;;;;;8.46;100.00;95869.34;5072465;28;20213;-57
2023/12/22 03:02:08;;;;;;;1.67;0.63;;;;;;;8.45;100.00;95883.47;5073237;28;20198;-56
2023/12/22 03:04:35;;;;;;;1.63;0.70;;;;;;;8.36;100.00;95889.66;5072330;28;20210;-56
2023/12/22 03:07:01;;;;;;;1.63;0.60;;;;;;;8.32;100.00;95878.56;5073413;28;20212;-54
2023/12/22 03:09:28;;;;;;;1.13;0.50;;;;;;;8.23;100.00;95873.31;5071575;28;20333;-57
2023/12/22 03:11:56;;;;;;;0.97;0.53;;;;;;;8.28;100.00;95873.72;5076103;28;20211;-54
2023/12/22 03:14:24;;;;;;;0.50;0.50;;;;;;;8.22;100.00;95890.91;5076955;28;20202;-56
2023/12/22 03:16:53;;;;;;;1.47;0.80;;;;;;;8.26;100.00;95883.53;5077701;28;20236;-55
2023/12/22 03:19:20;;;;;;;0.73;0.73;;;;;;;8.25;100.00;95897.72;5077529;28;20195;-56
2023/12/22 03:21:49;;;;;;;1.67;1.03;;;;;;;8.24;100.00;95903.94;5073154;28;20208;-57
2023/12/22 03:24:18;;;;;;;3.30;0.90;;;;;;;8.27;100.00;95890.47;5072516;28;20210;-56
2023/12/22 03:26:45;;;;;;;1.70;0.80;;;;;;;8.23;100.00;95897.84;5072666;28;20576;-56
2023/12/22 03:29:11;;;;;;;3.57;0.83;;;;;;;8.15;100.00;95892.47;5071344;28;20202;-55
2023/12/22 03:31:38;;;;;;;2.07;1.13;;;;;;;8.22;100.00;95887.47;5071962;28;20198;-56
2023/12/22 03:34:05;;;;;;;2.67;1.03;;;;;;;8.19;100.00;95888.59;5071530;28;20218;-56
2023/12/22 03:36:32;;;;;;;2.47;1.10;;;;;;;8.25;100.00;95876.66;5071392;28;20194;-56
2023/12/22 03:38:58;;;;;;;1.57;0.93;;;;;;;8.22;100.00;95880.38;5071697;28;20234;-56
2023/12/22 03:41:25;;;;;;;2.43;1.17;;;;;;;8.20;100.00;95894.69;5071169;28;20202;-56
2023/12/22 03:43:51;;;;;;;4.63;1.60;;;;;;;8.31;100.00;95905.06;5071131;28;20198;-56
2023/12/22 03:46:20;;;;;;;4.70;1.37;;;;;;;8.26;100.00;95886.19;5071880;28;20202;-56
2023/12/22 03:48:49;;;;;;;3.73;1.33;;;;;;;8.30;100.00;95898.13;5071999;28;20213;-56
2023/12/22 03:51:18;;;;;;;3.77;1.20;;;;;;;8.36;100.00;95918.63;5071679;28;20305;-55
2023/12/22 03:53:44;;;;;;;4.00;1.50;;;;;;;8.32;100.00;95914.63;5071533;28;20202;-56
2023/12/22 03:56:11;;;;;;;2.90;1.00;;;;;;;8.36;100.00;95916.00;5071660;28;20234;-56
2023/12/22 03:58:38;;;;;;;3.50;1.10;;;;;;;8.35;100.00;95907.25;5071375;28;20636;-56
2023/12/22 04:01:07;;;;;;;2.20;0.90;;;;;;;8.38;100.00;95919.28;5072179;28;20211;-56
2023/12/22 04:03:34;;;;;;;2.37;1.03;;;;;;;8.43;100.00;95928.41;5072756;28;20206;-56
2023/12/22 04:06:04;;;;;;;1.77;0.87;;;;;;;8.40;100.00;95928.69;5072195;28;20212;-56
2023/12/22 04:08:33;;;;;;;3.13;0.90;;;;;;;8.48;100.00;95946.41;5073155;28;20198;-55
2023/12/22 04:11:00;;;;;;;1.30;0.70;;;;;;;8.51;100.00;95940.84;5072464;28;20230;-56
2023/12/22 04:13:27;;;;;;;2.20;0.87;;;;;;;8.45;100.00;95944.91;5074223;28;20221;-57
2023/12/22 04:15:54;;;;;;;2.03;0.70;;;;;;;8.41;100.00;95929.53;5074076;28;20236;-55
2023/12/22 04:18:21;;;;;;;1.67;0.80;;;;;;;8.47;100.00;95936.84;5071594;28;20430;-56
2023/12/22 04:20:49;;;;;;;0.87;0.53;;;;;;;8.36;100.00;95944.97;5071905;28;20541;-54
2023/12/22 04:23:17;;;;;;;1.00;0.73;;;;;;;8.36;100.00;95963.41;5071338;28;20270;-56
2023/12/22 04:25:44;;;;;;;2.70;0.73;;;;;;;8.36;100.00;95963.41;5073784;28;20204;-55
2023/12/22 04:28:11;;;;;;;1.30;1.20;;;;;;;8.34;100.00;95970.59;5080810;28;20289;-56
2023/12/22 04:30:39;;;;;;;1.40;0.80;;;;;;;8.27;100.00;95993.19;5077037;28;20209;-56
2023/12/22 04:33:05;;;;;;;1.30;1.00;;;;;;;8.23;100.00;95978.66;5077268;28;20691;-56
2023/12/22 04:35:35;;;;;;;3.67;1.30;;;;;;;8.17;100.00;95992.41;5072774;28;20284;-56
2023/12/22 04:38:01;;;;;;;2.50;1.17;;;;;;;8.15;100.00;96004.91;5072592;28;20317;-56
2023/12/22 04:40:31;;;;;;;3.37;1.80;;;;;;;8.14;100.00;96000.59;5082007;28;20341;-57
2023/12/22 04:42:58;;;;;;;3.63;1.33;;;;;;;8.08;100.00;95990.66;5083020;28;20668;-55
2023/12/22 04:45:25;;;;;;;3.77;1.40;;;;;;;8.06;100.00;95982.06;5079727;28;20194;-57
2023/12/22 04:47:51;;;;;;;3.87;1.63;;;;;;;8.04;100.00;95984.00;5080106;28;20203;-56
2023/12/22 04:50:18;;;;;;;3.27;1.37;;;;;;;8.07;100.00;95978.47;5072193;28;20202;-57
2023/12/22 04:52:45;;;;;;;3.03;1.17;;;;;;;7.99;100.00;95977.38;5070197;28;20640;-55
2023/12/22 04:55:11;;;;;;;5.67;2.00;;;;;;;7.96;100.00;95976.81;5070822;28;20202;-55
2023/12/22 04:57:39;;;;;;;6.33;1.53;;;;;;;7.95;100.00;95985.69;5069905;28;20837;-56
2023/12/22 05:00:07;;;;;;;4.87;2.00;;;;;;;7.96;100.00;95980.28;5070325;28;20803;-57
2023/12/22 05:02:34;;;;;;;7.50;1.83;;;;;;;8.01;100.00;95985.94;5070541;28;20281;-56
2023/12/22 05:05:02;;;;;;;7.63;2.10;;;;;;;8.00;100.00;95980.84;5070139;28;20595;-55
2023/12/22 05:07:30;;;;;;;10.30;2.27;;;;;;;8.07;100.00;95986.34;5070376;28;20710;-57
2023/12/22 05:09:56;;;;;;;3.97;1.33;;;;;;;8.16;100.00;96003.91;5070201;28;20234;-56
2023/12/22 05:12:23;;;;;;;3.97;1.50;;;;;;;8.16;100.00;96011.81;5070137;28;20613;-55
2023/12/22 05:14:51;;;;;;;5.17;1.70;;;;;;;8.14;100.00;96000.59;5068805;28;20612;-56
2023/12/22 05:17:17;;;;;;;5.70;1.50;;;;;;;8.21;100.00;96001.69;5070201;28;20241;-57
2023/12/22 05:19:44;;;;;;;4.57;1.30;;;;;;;8.31;100.00;96016.53;5070284;28;20202;-56
2023/12/22 05:22:11;;;;;;;4.23;1.90;;;;;;;8.30;100.00;96011.38;5071576;28;20294;-56
2023/12/22 05:24:38;;;;;;;5.50;2.03;;;;;;;8.35;100.00;96001.25;5073842;28;20202;-55
2023/12/22 05:27:05;;;;;;;4.20;1.60;;;;;;;8.24;100.00;96017.19;5073557;28;20199;-57
2023/12/22 05:29:31;;;;;;;6.10;2.50;;;;;;;8.35;100.00;96031.06;5072424;28;20208;-56
2023/12/22 05:31:59;;;;;;;4.93;1.77;;;;;;;8.34;100.00;96039.94;5076022;28;20198;-56
2023/12/22 05:34:26;;;;;;;6.67;2.00;;;;;;;8.35;100.00;96038.13;5078907;28;20202;-56
2023/12/22 05:36:55;;;;;;;5.67;1.87;;;;;;;8.36;100.00;96045.88;5076415;28;20207;-55
2023/12/22 05:39:21;;;;;;;3.87;1.83;;;;;;;8.44;99.18;96034.63;5074337;28;20226;-55
2023/12/22 05:41:48;;;;;;;5.70;1.87;;;;;;;8.44;100.00;96039.88;5070383;28;20507;-56
2023/12/22 05:44:14;;;;;;;6.07;2.40;;;;;;;8.49;98.89;96025.31;5069653;28;20207;-57
2023/12/22 05:46:42;;;;;;;6.00;1.93;;;;;;;8.46;99.68;96032.69;5069950;28;20211;-57
2023/12/22 05:49:10;;;;;;;6.07;1.83;;;;;;;8.52;98.63;96018.94;5073491;28;20198;-55
2023/12/22 05:51:36;;;;;;;2.30;1.33;;;;;;;8.57;98.76;96027.25;5074142;28;20541;-56
2023/12/22 05:54:03;;;;;;;5.07;1.97;;;;;;;8.44;99.72;96040.72;5074002;28;20210;-56
2023/12/22 05:56:30;;;;;;;3.83;1.50;;;;;;;8.44;98.88;96042.53;5073817;28;20214;-56
2023/12/22 05:58:57;;;;;;;4.27;1.70;;;;;;;8.41;99.63;96041.03;5073571;28;20313;-56
2023/12/22 06:01:23;;;;;;;8.33;1.97;;;;;;;8.44;98.58;96043.38;5073932;28;20299;-56
2023/12/22 06:03:50;;;;;;;3.20;1.30;;;;;;;8.57;96.42;96040.41;5073135;28;20213;-56
2023/12/22 06:06:18;;;;;;;4.77;1.30;;;;;;;8.52;98.35;96036.53;5073755;28;20220;-56
2023/12/22 06:08:45;;;;;;;3.30;1.83;;;;;;;8.52;95.51;96042.63;5073108;28;20214;-56
2023/12/22 06:11:13;;;;;;;4.33;1.43;;;;;;;8.51;96.17;96054.16;5073382;28;20203;-56
2023/12/22 06:13:39;;;;;;;6.83;1.60;;;;;;;8.54;96.09;96045.94;5072959;28;20568;-56
2023/12/22 06:16:06;;;;;;;4.50;1.80;;;;;;;8.55;95.78;96034.44;5073305;28;20234;-56
2023/12/22 06:18:33;;;;;;;4.00;1.90;;;;;;;8.63;94.32;96049.53;5072727;28;20229;-57
2023/12/22 06:20:59;;;;;;;6.40;1.87;;;;;;;8.61;93.18;96033.03;5073786;28;20298;-55
2023/12/22 06:23:27;;;;;;;6.33;1.43;;;;;;;8.74;91.89;96036.16;5073348;28;20201;-55
2023/12/22 06:25:54;;;;;;;5.47;1.97;;;;;;;8.68;91.42;96050.75;5073509;28;20220;-56
2023/12/22 06:28:21;;;;;;;3.83;1.40;;;;;;;8.72;91.41;96044.19;5072941;28;20201;-56
2023/12/22 06:30:47;;;;;;;5.00;1.43;;;;;;;8.74;91.75;96039.63;5073455;28;20202;-56
2023/12/22 06:33:14;;;;;;;4.50;1.93;;;;;;;8.74;90.78;96042.28;5072853;28;20225;-56
2023/12/22 06:35:42;;;;;;;5.83;1.83;;;;;;;8.77;90.90;96072.78;5073749;28;20206;-56
2023/12/22 06:38:11;;;;;;;5.03;1.73;;;;;;;8.72;90.34;96067.94;5072929;28;20218;-55
2023/12/22 06:40:39;;;;;;;7.23;1.73;;;;;;;8.75;90.53;96054.44;5079360;28;20254;-55
2023/12/22 06:43:06;;;;;;;6.87;2.40;;;;;;;8.76;89.21;96050.84;5095248;28;20199;-55
2023/12/22 06:45:34;;;;;;;4.70;2.03;;;;;;;8.79;89.65;96062.91;5098882;28;20258;-56
2023/12/22 06:48:00;;;;;;;5.37;1.70;;;;;;;8.77;90.77;96063.06;5096469;28;20266;-55
2023/12/22 06:50:27;;;;;;;3.07;1.17;;;;;;;8.83;89.65;96065.09;5096497;28;20263;-54
2023/12/22 06:52:53;;;;;;;4.10;1.87;;;;;;;8.79;89.75;96069.00;5096241;28;20194;-55
2023/12/22 06:55:21;;;;;;;3.07;1.53;;;;;;;8.77;89.87;96056.97;5095344;28;20290;-56
2023/12/22 06:57:49;;;;;;;3.77;1.90;;;;;;;8.77;91.95;96068.34;5081963;28;20526;-55
2023/12/22 07:00:16;;;;;;;5.47;1.90;;;;;;;8.74;90.54;96070.44;5084466;28;20277;-55
2023/12/22 07:02:43;;;;;;;6.03;1.87;;;;;;;8.79;90.31;96071.66;5086479;28;20198;-55
2023/12/22 07:05:33;;;;;;;3.87;1.87;;;;;;;8.78;91.14;96064.72;5087489;28;20254;-54
2023/12/22 07:08:00;;;;;;;9.00;1.63;;;;;;;8.80;90.68;96056.66;5073657;28;20226;-56
2023/12/22 07:10:27;;;;;;;4.70;2.10;;;;;;;8.80;91.72;96061.94;5072878;28;20194;-55
2023/12/22 07:12:55;;;;;;;4.97;2.00;;;;;;;8.76;92.50;96061.41;5072370;28;20207;-55
2023/12/22 07:15:22;;;;;;;5.80;1.60;;;;;;;8.72;94.18;96075.84;5072968;28;20241;-55
2023/12/22 07:17:50;;;;;;;2.33;1.40;;;;;;;8.63;98.09;96103.06;5072389;28;20263;-54
2023/12/22 07:20:18;;;;;;;4.43;2.20;;;;;;;8.50;100.00;96108.66;5072189;28;20252;-55
2023/12/22 07:22:46;;;;;;;5.83;1.50;;;;;;;8.42;100.00;96108.56;5072232;28;20213;-55
2023/12/22 07:25:13;;;;;;;4.33;1.80;;;;;;;8.28;100.00;96121.31;5070573;28;20210;-56
2023/12/22 07:27:39;;;;;;;5.60;1.80;;;;;;;8.20;100.00;96136.97;5072165;28;20206;-56
2023/12/22 07:30:15;;;;;;;5.70;1.67;;;;;;;8.10;100.00;96131.72;5072845;28;20658;-56
2023/12/22 07:32:42;;;;;;;3.30;1.50;;;;;;;7.95;100.00;96123.44;5072470;28;20213;-56
2023/12/22 07:35:10;;;;;;;2.53;1.30;;;;;;;7.90;100.00;96124.81;5073477;28;20206;-57
2023/12/22 07:37:39;;;;;;;2.07;1.10;;;;;;;7.89;100.00;96142.41;5072943;28;20198;-56
2023/12/22 07:40:07;;;;;;;4.90;1.73;;;;;;;7.90;100.00;96149.31;5071873;28;20261;-56
2023/12/22 07:42:34;;;;;;;2.23;1.03;;;;;;;7.83;100.00;96137.69;5072398;28;20510;-55
2023/12/22 07:45:04;;;;;;;3.10;1.20;;;;;;;7.88;100.00;96146.00;5071710;28;20210;-56
2023/12/22 07:47:32;;;;;;;2.43;1.20;;;;;;;7.92;100.00;96152.66;5071961;28;21339;-56
2023/12/22 07:49:58;;;;;;;5.87;1.90;;;;;;;7.88;100.00;96153.91;5071666;28;20214;-56
2023/12/22 07:52:25;;;;;;;3.20;1.47;;;;;;;7.84;100.00;96152.50;5070580;28;20762;-56
2023/12/22 07:54:52;;;;;;;4.00;1.77;;;;;;;7.83;100.00;96155.31;5071389;28;20202;-56
2023/12/22 07:57:19;;;;;;;2.37;1.20;;;;;;;7.95;100.00;96159.44;5071781;28;20207;-56
2023/12/22 07:59:45;;;;;;;4.40;1.80;;;;;;;8.05;100.00;96167.34;5071398;28;20669;-56
2023/12/22 08:02:14;;;;;;;2.83;1.27;;;;;;;7.88;100.00;96188.13;5071462;28;20206;-59
2023/12/22 08:04:42;;;;;;;3.67;1.70;;;;;;;7.99;100.00;96180.09;5070401;28;20808;-58
2023/12/22 08:07:09;;;;;;;4.10;1.40;;;;;;;7.99;100.00;96171.38;5070868;28;20651;-57
2023/12/22 08:09:36;;;;;;;4.43;1.60;;;;;;;8.08;100.00;96173.16;5071349;28;20202;-57
2023/12/22 08:12:02;;;;;;;3.10;1.40;;;;;;;8.12;100.00;96176.34;5070295;28;20213;-57
2023/12/22 08:14:29;;;;;;;4.67;1.37;;;;;;;8.14;100.00;96167.34;5071092;28;20213;-56
2023/12/22 08:16:55;;;;;;;2.90;1.40;;;;;;;8.13;100.00;96183.28;5070694;28;20578;-63
2023/12/22 08:19:25;;;;;;;5.13;1.70;;;;;;;8.18;100.00;96178.44;5071080;28;20361;-56
2023/12/22 08:21:55;;;;;;;5.07;1.93;;;;;;;8.25;100.00;96184.81;5071030;28;20217;-56
2023/12/22 08:24:22;;;;;;;3.73;1.30;;;;;;;8.24;100.00;96196.31;5071150;28;20693;-56
2023/12/22 08:26:48;;;;;;;5.17;1.43;;;;;;;8.30;100.00;96190.50;5071610;28;20216;-57
2023/12/22 08:29:15;;;;;;;3.80;1.20;;;;;;;8.31;100.00;96197.44;5070601;28;20198;-56
2023/12/22 08:31:43;;;;;;;4.97;1.67;;;;;;;8.35;100.00;96201.47;5071123;28;20254;-57
2023/12/22 08:34:10;;;;;;;3.60;1.10;;;;;;;8.38;100.00;96199.38;5071304;28;20210;-56
2023/12/22 08:36:37;;;;;;;2.80;1.40;;;;;;;8.35;100.00;96185.66;5070930;28;20211;-56
2023/12/22 08:39:07;;;;;;;4.63;1.50;;;;;;;8.43;100.00;96196.34;5070780;28;20233;-56
2023/12/22 08:41:36;;;;;;;4.47;1.50;;;;;;;8.44;100.00;96193.53;5071118;28;20195;-56
2023/12/22 08:44:02;;;;;;;2.50;1.30;;;;;;;8.36;100.00;96205.78;5070739;28;20302;-57
2023/12/22 08:46:30;;;;;;;5.13;1.43;;;;;;;8.37;100.00;96210.88;5071356;28;20538;-56
2023/12/22 08:48:59;;;;;;;3.70;1.40;;;;;;;8.43;100.00;96210.31;5071192;28;20218;-56
2023/12/22 08:51:26;;;;;;;6.53;1.63;;;;;;;8.42;100.00;96199.94;5071576;28;20207;-56
2023/12/22 08:53:54;;;;;;;3.87;1.77;;;;;;;8.44;100.00;96183.00;5069281;28;20216;-56
2023/12/22 08:56:26;;;;;;;5.70;1.37;;;;;;;8.48;100.00;96197.56;5070880;28;20636;-55
2023/12/22 08:58:54;;;;;;;4.40;1.70;;;;;;;8.49;100.00;96201.03;5071049;28;20207;-56
2023/12/22 09:01:24;;;;;;;3.83;1.73;;;;;;;8.48;100.00;96204.63;5070769;28;20649;-57
2023/12/22 09:03:51;;;;;;;2.33;1.40;;;;;;;8.39;100.00;96210.75;5069518;28;20194;-56
2023/12/22 09:06:17;;;;;;;1.67;1.30;;;;;;;8.45;100.00;96199.66;5070987;28;20631;-56
2023/12/22 09:08:44;;;;;;;1.83;1.07;;;;;;;8.46;100.00;96196.88;5070887;28;20199;-54
2023/12/22 09:11:12;;;;;;;5.00;1.67;;;;;;;8.41;100.00;96206.16;5074179;28;20210;-56
2023/12/22 09:13:43;;;;;;;3.67;1.70;;;;;;;8.44;100.00;96209.34;5075887;28;20262;-56
2023/12/22 09:16:11;;;;;;;2.53;1.57;;;;;;;8.37;100.00;96208.25;5081484;28;20277;-59
2023/12/22 09:18:38;;;;;;;3.33;1.40;;;;;;;8.42;100.00;96200.78;5087407;28;20241;-56
2023/12/22 09:21:05;;;;;;;3.33;1.10;;;;;;;8.40;100.00;96201.84;5078285;28;20811;-55
2023/12/22 09:23:33;;;;;;;1.67;0.83;;;;;;;8.39;100.00;96211.59;5072914;28;20711;-54
2023/12/22 09:25:59;;;;;;;1.77;0.90;;;;;;;8.38;100.00;96214.34;5074954;28;20206;-56
2023/12/22 09:28:28;;;;;;;2.37;1.07;;;;;;;8.36;100.00;96211.03;5074482;28;20205;-56
2023/12/22 09:30:57;;;;;;;1.53;0.97;;;;;;;8.39;100.00;96221.28;5084599;28;20210;-55
2023/12/22 09:33:26;;;;;;;4.63;1.60;;;;;;;8.42;100.00;96215.75;5081751;28;20580;-54
2023/12/22 09:35:53;;;;;;;2.67;1.10;;;;;;;8.39;100.00;96216.03;5078554;28;20207;-56
2023/12/22 09:38:20;;;;;;;1.77;0.90;;;;;;;8.40;100.00;96217.66;5079249;28;20206;-56
2023/12/22 09:40:46;;;;;;;1.87;1.07;;;;;;;8.42;100.00;96210.47;5074963;28;20225;-56
2023/12/22 09:43:15;;;;;;;1.30;0.80;;;;;;;8.36;100.00;96205.78;5074190;28;20202;-56
2023/12/22 09:45:42;;;;;;;3.03;1.07;;;;;;;8.42;100.00;96210.47;5073137;28;20302;-55
2023/12/22 09:48:16;;;;;;;2.77;0.73;;;;;;;8.40;100.00;96218.50;5074399;28;20213;-56
2023/12/22 09:50:43;;;;;;;2.30;1.20;;;;;;;8.42;100.00;96218.38;5073705;28;20287;-55
2023/12/22 09:53:12;;;;;;;4.20;1.17;;;;;;;8.49;100.00;96227.38;5074090;28;20203;-55
2023/12/22 09:55:39;;;;;;;3.33;0.97;;;;;;;8.53;100.00;96231.41;5077934;28;20205;-56
2023/12/22 09:58:07;;;;;;;2.77;1.03;;;;;;;8.57;99.50;96240.69;5082149;28;20206;-56
2023/12/22 10:00:34;;;;;;;4.30;1.40;;;;;;;8.60;98.99;96240.41;5079409;28;20337;-55
2023/12/22 10:03:00;;;;;;;3.63;1.30;;;;;;;8.66;99.45;96239.00;5082721;28;20306;-55
2023/12/22 10:05:30;;;;;;;2.00;1.00;;;;;;;8.63;100.00;96245.41;5081474;28;20202;-55
2023/12/22 10:07:58;;;;;;;3.00;1.17;;;;;;;8.65;100.00;96240.81;5090434;28;20273;-55
2023/12/22 10:10:24;;;;;;;2.57;1.23;;;;;;;8.70;99.73;96235.94;5088208;28;20215;-55
2023/12/22 10:12:53;;;;;;;2.57;1.07;;;;;;;8.69;99.96;96228.19;5090652;28;20221;-56
2023/12/22 10:15:23;;;;;;;3.07;1.17;;;;;;;8.77;98.93;96217.75;5086189;28;20273;-55
2023/12/22 10:17:51;;;;;;;4.17;1.50;;;;;;;8.79;99.89;96214.00;5073724;28;20619;-54
2023/12/22 10:20:18;;;;;;;6.37;1.37;;;;;;;8.83;99.86;96218.03;5072888;28;20233;-56
2023/12/22 10:22:49;;;;;;;4.43;1.70;;;;;;;8.77;99.09;96213.31;5073417;28;20203;-56
2023/12/22 10:25:16;;;;;;;4.03;1.37;;;;;;;8.73;100.00;96211.94;5072995;28;20209;-54
2023/12/22 10:27:45;;;;;;;3.23;1.33;;;;;;;8.74;100.00;96204.88;5072407;28;20203;-55
2023/12/22 10:30:12;;;;;;;2.83;1.37;;;;;;;8.80;100.00;96199.84;5072944;28;20713;-55
2023/12/22 10:32:41;;;;;;;4.57;1.50;;;;;;;8.76;100.00;96209.03;5073369;28;20286;-56
2023/12/22 10:35:09;;;;;;;2.10;1.30;;;;;;;8.81;100.00;96209.44;5072440;28;20213;-55
2023/12/22 10:37:36;;;;;;;3.60;1.27;;;;;;;8.88;100.00;96213.16;5073453;28;20207;-55
2023/12/22 10:40:10;;;;;;;3.93;1.77;;;;;;;8.93;100.00;96205.63;5072262;28;20671;-54
2023/12/22 10:42:37;;;;;;;3.80;1.67;;;;;;;8.83;100.00;96204.00;5072676;28;20213;-55
2023/12/22 10:45:05;;;;;;;4.93;1.50;;;;;;;8.82;100.00;96197.88;5072880;28;20293;-54
2023/12/22 10:47:32;;;;;;;3.60;1.17;;;;;;;8.73;100.00;96190.84;5073076;28;20203;-54
2023/12/22 10:49:58;;;;;;;4.67;1.43;;;;;;;8.67;100.00;96199.34;5072739;28;20234;-55
2023/12/22 10:52:25;;;;;;;3.30;1.80;;;;;;;8.64;100.00;96189.09;5072612;28;20657;-57
2023/12/22 10:54:52;;;;;;;4.20;1.30;;;;;;;8.64;100.00;96188.25;5072047;28;20237;-56
2023/12/22 10:57:20;;;;;;;4.77;1.97;;;;;;;8.67;100.00;96194.06;5072581;28;20639;-55
2023/12/22 10:59:48;;;;;;;2.63;1.33;;;;;;;8.65;100.00;96179.34;5072611;28;20226;-54
2023/12/22 11:02:17;;;;;;;4.23;2.00;;;;;;;8.64;100.00;96168.00;5072291;28;20260;-56
2023/12/22 11:04:48;;;;;;;2.70;1.10;;;;;;;8.52;100.00;96174.41;5072231;28;20207;-56
2023/12/22 11:07:15;;;;;;;2.70;1.37;;;;;;;8.38;100.00;96172.19;5072929;28;20209;-57
2023/12/22 11:09:43;;;;;;;3.10;1.37;;;;;;;8.38;100.00;96180.94;5072586;28;20323;-56
2023/12/22 11:12:11;;;;;;;1.87;1.07;;;;;;;8.23;100.00;96173.56;5072120;28;20305;-55
2023/12/22 11:14:40;;;;;;;3.13;1.30;;;;;;;8.14;100.00;96166.53;5072094;28;20224;-55
2023/12/22 11:17:08;;;;;;;3.57;1.83;;;;;;;8.25;100.00;96153.19;5070129;28;20227;-54
2023/12/22 11:19:36;;;;;;;4.70;0.70;;;;;;;8.13;100.00;96154.31;5071952;28;20326;-56
2023/12/22 11:22:05;;;;;;;2.47;0.90;;;;;;;8.07;100.00;96131.19;5072313;28;20225;-55
2023/12/22 11:24:32;;;;;;;1.70;1.00;;;;;;;7.99;100.00;96119.53;5071692;28;20199;-55
2023/12/22 11:26:59;;;;;;;1.17;0.93;;;;;;;8.06;100.00;96124.25;5072215;28;20211;-56
2023/12/22 11:29:27;;;;;;;3.50;0.80;;;;;;;7.99;100.00;96109.00;5071725;28;20226;-56
2023/12/22 11:31:56;;;;;;;1.40;0.63;;;;;;;7.91;100.00;96106.25;5072102;28;20232;-55
2023/12/22 11:34:28;;;;;;;1.80;0.60;;;;;;;7.90;100.00;96101.13;5085507;28;20195;-55
2023/12/22 11:36:56;;;;;;;1.67;0.83;;;;;;;7.88;100.00;96109.16;5086580;28;20182;-55